Time;durP1;ratioP1;P1;durP2;ratioP2;P2;SDS_P1;SDS_P2;PMS_P1;PMS_P2;Temp;Humidity;BMP_temperature;BMP_pressure;BME280_temperature;BME280_humidity;BME280_pressure;Samples;Min_cycle;Max_cycle;Signal;HPM_P1;HPM_P2
2022/10/15 00:02:21;;;;;;;30.00;25.23;;;11.90;99.90;;;;;;5035646;28;20294;-90
2022/10/15 00:04:57;;;;;;;27.92;25.05;;;11.80;99.90;;;;;;5026229;28;20207;-90
2022/10/15 00:07:29;;;;;;;26.27;23.67;;;11.80;99.90;;;;;;5015595;28;20227;-90
2022/10/15 00:09:58;;;;;;;28.45;24.23;;;11.80;99.90;;;;;;5015514;28;20204;-90
2022/10/15 00:12:26;;;;;;;25.52;23.00;;;11.80;99.90;;;;;;5015844;28;20301;-90
2022/10/15 00:14:54;;;;;;;26.98;24.15;;;11.80;99.90;;;;;;5015704;28;20210;-90
2022/10/15 00:17:23;;;;;;;25.70;23.25;;;11.80;99.90;;;;;;5015336;28;20229;-90
2022/10/15 00:19:52;;;;;;;26.15;23.45;;;11.80;99.90;;;;;;5015628;28;20208;-89
2022/10/15 00:22:20;;;;;;;27.77;23.58;;;11.80;99.90;;;;;;5015404;28;20199;-90
2022/10/15 00:24:50;;;;;;;36.30;24.77;;;11.80;99.90;;;;;;5015257;28;20231;-89
2022/10/15 00:27:19;;;;;;;34.00;25.98;;;11.80;99.90;;;;;;5015335;28;20227;-90
2022/10/15 00:29:48;;;;;;;26.85;22.73;;;11.80;99.90;;;;;;5015197;28;20235;-91
2022/10/15 00:32:21;;;;;;;24.83;22.10;;;11.80;99.90;;;;;;5015373;28;20213;-89
2022/10/15 00:34:51;;;;;;;29.10;24.23;;;11.80;99.90;;;;;;5014688;28;20303;-90
2022/10/15 00:37:21;;;;;;;30.38;23.58;;;11.80;99.90;;;;;;5035058;28;20222;-90
2022/10/15 00:39:54;;;;;;;25.98;22.60;;;11.80;99.90;;;;;;5034831;28;20214;-89
2022/10/15 00:42:29;;;;;;;26.75;23.95;;;11.80;99.90;;;;;;5035015;28;20271;-89
2022/10/15 00:44:59;;;;;;;25.48;22.85;;;11.80;99.90;;;;;;5034681;28;20256;-90
2022/10/15 00:47:37;;;;;;;25.23;22.63;;;11.80;99.90;;;;;;5034330;28;20222;-89
2022/10/15 00:50:12;;;;;;;27.63;23.90;;;11.70;99.90;;;;;;5034377;28;20206;-90
2022/10/15 00:55:42;;;;;;;27.15;24.33;;;11.80;99.90;;;;;;5034437;28;20202;-90
2022/10/15 00:58:18;;;;;;;36.78;25.58;;;11.80;99.90;;;;;;5034653;28;20237;-89
2022/10/15 01:00:47;;;;;;;28.35;25.63;;;11.80;99.90;;;;;;5035114;28;20289;-90
2022/10/15 01:03:15;;;;;;;25.40;22.98;;;11.80;99.90;;;;;;5034817;28;20214;-90
2022/10/15 01:05:44;;;;;;;28.27;24.15;;;11.70;99.90;;;;;;5034423;28;20237;-90
2022/10/15 01:08:12;;;;;;;26.17;23.52;;;11.70;99.90;;;;;;5033940;28;20222;-89
2022/10/15 01:10:49;;;;;;;27.60;23.08;;;11.70;99.90;;;;;;5034273;28;20210;-89
2022/10/15 01:13:31;;;;;;;27.50;24.52;;;11.70;99.90;;;;;;5033948;28;20216;-90
2022/10/15 01:16:05;;;;;;;27.95;22.75;;;11.70;99.90;;;;;;5034179;28;20206;-90
2022/10/15 01:18:39;;;;;;;26.50;23.80;;;11.70;99.90;;;;;;5035319;28;20226;-89
2022/10/15 01:21:16;;;;;;;26.02;23.23;;;11.60;99.90;;;;;;5036020;28;20209;-89
2022/10/15 01:24:18;;;;;;;35.60;25.85;;;11.60;99.90;;;;;;5033964;28;20198;-91
2022/10/15 01:27:16;;;;;;;30.85;25.58;;;11.60;99.90;;;;;;5033820;28;20241;-90
2022/10/15 01:30:06;;;;;;;26.25;23.52;;;11.60;99.90;;;;;;5031149;28;20202;-89
2022/10/15 01:32:42;;;;;;;30.02;25.67;;;11.70;99.90;;;;;;5034122;28;20206;-90
2022/10/15 01:35:18;;;;;;;29.75;25.52;;;11.70;99.90;;;;;;5033817;28;20190;-89
2022/10/15 01:37:53;;;;;;;35.05;28.38;;;11.70;99.90;;;;;;5033433;28;20236;-90
2022/10/15 01:40:29;;;;;;;30.17;27.20;;;11.80;99.90;;;;;;5032579;28;20221;-89
2022/10/15 01:42:59;;;;;;;28.95;26.05;;;11.80;99.90;;;;;;5033548;28;20203;-90
2022/10/15 01:45:33;;;;;;;26.65;23.98;;;11.80;99.90;;;;;;5033797;28;20206;-90
2022/10/15 01:48:08;;;;;;;27.40;24.77;;;11.80;99.90;;;;;;5033543;28;20225;-89
2022/10/15 01:50:40;;;;;;;30.23;27.05;;;11.90;99.90;;;;;;5033022;28;20202;-90
2022/10/15 01:53:10;;;;;;;28.30;25.55;;;11.90;99.90;;;;;;5033031;28;20216;-90
2022/10/15 01:55:42;;;;;;;36.42;27.98;;;11.90;99.90;;;;;;5033640;28;20210;-90
2022/10/15 01:58:13;;;;;;;31.83;28.33;;;11.90;99.90;;;;;;5034942;28;20234;-89
2022/10/15 02:00:44;;;;;;;33.13;27.42;;;12.00;99.90;;;;;;5033120;28;20206;-90
2022/10/15 02:06:11;;;;;;;31.35;28.20;;;12.00;99.90;;;;;;5031345;28;20240;-90
2022/10/15 02:08:57;;;;;;;29.40;26.20;;;12.10;99.90;;;;;;5032933;28;20255;-90
2022/10/15 02:11:29;;;;;;;31.10;25.98;;;12.00;99.90;;;;;;5032100;28;20218;-89
2022/10/15 02:14:11;;;;;;;32.10;26.52;;;12.10;99.90;;;;;;5032867;28;20213;-90
2022/10/15 02:16:44;;;;;;;28.27;24.85;;;12.10;99.90;;;;;;5032773;28;20234;-90
2022/10/15 02:19:24;;;;;;;29.05;26.02;;;12.10;99.90;;;;;;5032841;28;20213;-89
2022/10/15 02:21:58;;;;;;;33.75;27.25;;;12.10;99.90;;;;;;5033176;28;20286;-90
2022/10/15 02:24:34;;;;;;;30.58;26.80;;;12.10;99.90;;;;;;5032906;28;20237;-90
2022/10/15 02:27:04;;;;;;;28.42;25.42;;;12.20;99.90;;;;;;5032549;28;20236;-90
2022/10/15 02:29:38;;;;;;;30.63;25.88;;;12.20;99.90;;;;;;5032455;28;20210;-89
2022/10/15 02:32:07;;;;;;;33.88;27.35;;;12.20;99.90;;;;;;5032577;28;20234;-89
2022/10/15 02:34:37;;;;;;;28.38;25.38;;;12.20;99.90;;;;;;5032816;28;20223;-90
2022/10/15 02:37:07;;;;;;;30.65;26.88;;;12.20;99.90;;;;;;5032534;28;20218;-89
2022/10/15 02:39:35;;;;;;;32.38;26.30;;;12.20;99.90;;;;;;5033741;28;20206;-90
2022/10/15 02:42:04;;;;;;;33.00;27.25;;;12.20;99.90;;;;;;5033903;28;20214;-89
2022/10/15 02:44:33;;;;;;;29.65;26.50;;;12.20;99.90;;;;;;5032369;28;20211;-89
2022/10/15 02:47:02;;;;;;;29.83;26.63;;;12.20;99.90;;;;;;5032527;28;20241;-90
2022/10/15 02:49:30;;;;;;;37.00;25.63;;;12.20;99.90;;;;;;5032092;28;20218;-90
2022/10/15 02:52:00;;;;;;;28.58;25.70;;;12.20;99.90;;;;;;5032427;28;20221;-89
2022/10/15 02:54:28;;;;;;;27.10;24.38;;;12.20;99.90;;;;;;5032608;28;20218;-89
2022/10/15 02:56:56;;;;;;;28.50;25.65;;;12.20;99.90;;;;;;5031888;28;20227;-88
2022/10/15 02:59:24;;;;;;;28.85;25.73;;;12.20;99.90;;;;;;5032364;28;20203;-89
2022/10/15 03:01:53;;;;;;;29.25;25.15;;;12.30;99.90;;;;;;5032288;28;20203;-90
2022/10/15 03:04:23;;;;;;;30.80;25.08;;;12.20;99.90;;;;;;5032347;28;20213;-90
2022/10/15 03:06:52;;;;;;;31.75;27.40;;;12.30;99.90;;;;;;5031861;28;20280;-89
2022/10/15 03:09:22;;;;;;;27.65;25.00;;;12.30;99.90;;;;;;5031637;28;20209;-88
2022/10/15 03:11:53;;;;;;;29.42;26.23;;;12.30;99.90;;;;;;5032004;28;20257;-88
2022/10/15 03:14:26;;;;;;;32.85;25.08;;;12.30;99.90;;;;;;5032400;28;20209;-88
2022/10/15 03:16:59;;;;;;;33.00;27.95;;;12.30;99.90;;;;;;5032150;28;20215;-90
2022/10/15 03:19:31;;;;;;;28.20;25.58;;;12.30;99.90;;;;;;5032643;28;20221;-90
2022/10/15 03:22:00;;;;;;;30.30;27.02;;;12.30;99.90;;;;;;5031947;28;20209;-90
2022/10/15 03:24:37;;;;;;;29.38;26.35;;;12.30;99.90;;;;;;5035400;28;20222;-90
2022/10/15 03:27:08;;;;;;;25.58;23.25;;;12.30;99.90;;;;;;5035468;28;20321;-90
2022/10/15 03:29:39;;;;;;;29.58;26.77;;;12.30;99.90;;;;;;5035540;28;20214;-87
2022/10/15 03:32:12;;;;;;;32.95;27.77;;;12.30;99.90;;;;;;5035470;28;20245;-88
2022/10/15 03:34:43;;;;;;;38.72;28.80;;;12.30;99.90;;;;;;5035755;28;20207;-87
2022/10/15 03:37:14;;;;;;;33.42;27.65;;;12.30;99.90;;;;;;5035507;28;20222;-90
2022/10/15 03:39:44;;;;;;;30.85;27.45;;;12.30;99.90;;;;;;5035332;28;20234;-90
2022/10/15 03:42:16;;;;;;;31.10;26.85;;;12.30;99.90;;;;;;5035226;28;20226;-89
2022/10/15 03:44:49;;;;;;;28.98;25.88;;;12.30;99.90;;;;;;5035376;28;20226;-90
2022/10/15 03:47:20;;;;;;;30.40;26.50;;;12.30;99.90;;;;;;5034794;28;20233;-90
2022/10/15 03:49:49;;;;;;;30.70;27.42;;;12.20;99.90;;;;;;5034768;28;20285;-90
2022/10/15 03:52:18;;;;;;;29.13;26.10;;;12.20;99.90;;;;;;5035196;28;20206;-90
2022/10/15 03:54:47;;;;;;;32.72;29.23;;;12.20;99.90;;;;;;5035140;28;20209;-90
2022/10/15 03:57:16;;;;;;;33.78;28.70;;;12.20;99.90;;;;;;5035024;28;20310;-89
2022/10/15 03:59:44;;;;;;;28.13;25.35;;;12.20;99.90;;;;;;5034959;28;20206;-90
2022/10/15 04:02:13;;;;;;;29.77;26.60;;;12.20;99.90;;;;;;5036883;28;20217;-90
2022/10/15 04:04:41;;;;;;;31.15;27.85;;;12.20;99.90;;;;;;5035348;28;20217;-90
2022/10/15 04:07:09;;;;;;;29.60;25.75;;;12.20;99.90;;;;;;5034555;28;20261;-91
2022/10/15 04:09:38;;;;;;;30.80;27.23;;;12.20;99.90;;;;;;5034714;28;20204;-89
2022/10/15 04:12:08;;;;;;;30.25;26.95;;;12.20;99.90;;;;;;5034820;28;20233;-89
2022/10/15 04:14:36;;;;;;;29.83;26.80;;;12.20;99.90;;;;;;5034674;28;20217;-90
2022/10/15 04:17:04;;;;;;;29.38;26.48;;;12.30;99.90;;;;;;5034403;28;20226;-89
2022/10/15 04:19:33;;;;;;;34.90;27.45;;;12.30;99.90;;;;;;5034046;28;20210;-87
2022/10/15 04:22:01;;;;;;;30.23;26.77;;;12.30;99.90;;;;;;5034675;28;20206;-88
2022/10/15 04:24:29;;;;;;;32.17;26.90;;;12.30;99.90;;;;;;5034450;28;20206;-89
2022/10/15 04:26:57;;;;;;;30.90;27.70;;;12.30;99.90;;;;;;5034302;28;20232;-88
2022/10/15 04:29:27;;;;;;;31.73;28.35;;;12.30;99.90;;;;;;5034057;28;20207;-87
2022/10/15 04:31:56;;;;;;;38.88;28.73;;;12.30;99.90;;;;;;5034653;28;20207;-87
2022/10/15 04:34:24;;;;;;;29.10;26.08;;;12.30;99.90;;;;;;5033247;28;20215;-88
2022/10/15 04:36:52;;;;;;;31.85;28.48;;;12.30;99.90;;;;;;5034280;28;20261;-88
2022/10/15 04:39:21;;;;;;;34.08;28.88;;;12.30;99.90;;;;;;5034035;28;20217;-88
2022/10/15 04:41:49;;;;;;;32.05;28.65;;;12.40;99.90;;;;;;5033936;28;20217;-88
2022/10/15 04:44:17;;;;;;;32.35;28.85;;;12.30;99.90;;;;;;5033845;28;20217;-88
2022/10/15 04:46:47;;;;;;;30.15;26.98;;;12.40;99.90;;;;;;5034425;28;20203;-87
2022/10/15 04:49:15;;;;;;;29.83;26.13;;;12.40;99.90;;;;;;5033219;28;20222;-87
2022/10/15 04:51:43;;;;;;;30.42;26.98;;;12.40;99.90;;;;;;5033706;28;20221;-87
2022/10/15 04:54:15;;;;;;;32.00;27.98;;;12.40;99.90;;;;;;5033930;28;20199;-88
2022/10/15 04:56:46;;;;;;;33.00;29.55;;;12.40;99.90;;;;;;5033537;28;20211;-87
2022/10/15 04:59:25;;;;;;;32.22;27.73;;;12.50;99.90;;;;;;5033925;28;20198;-89
2022/10/15 05:01:55;;;;;;;30.75;27.42;;;12.50;99.90;;;;;;5033894;28;20214;-89
2022/10/15 05:04:24;;;;;;;32.50;29.02;;;12.50;99.90;;;;;;5033618;28;20198;-87
2022/10/15 05:06:52;;;;;;;32.83;28.77;;;12.50;99.90;;;;;;5033540;28;20207;-88
2022/10/15 05:09:20;;;;;;;36.50;29.92;;;12.60;99.90;;;;;;5032925;28;20222;-88
2022/10/15 05:11:49;;;;;;;33.03;29.52;;;12.60;99.90;;;;;;5034077;28;20209;-89
2022/10/15 05:14:17;;;;;;;32.45;29.10;;;12.70;99.90;;;;;;5033557;28;20206;-88
2022/10/15 05:16:45;;;;;;;33.15;29.77;;;12.70;99.90;;;;;;5033601;28;20212;-88
2022/10/15 05:19:16;;;;;;;37.60;31.25;;;12.70;99.90;;;;;;5033044;28;20202;-88
2022/10/15 05:21:45;;;;;;;34.13;30.27;;;12.70;99.90;;;;;;5033493;28;20217;-88
2022/10/15 05:24:13;;;;;;;30.25;27.35;;;12.70;99.90;;;;;;5034134;28;20207;-88
2022/10/15 05:26:42;;;;;;;42.33;30.77;;;12.70;99.90;;;;;;5033463;28;20210;-88
2022/10/15 05:29:10;;;;;;;31.42;28.52;;;12.70;99.90;;;;;;5027165;28;20211;-88
2022/10/15 05:31:38;;;;;;;35.92;30.98;;;12.60;99.90;;;;;;5013581;28;20199;-89
2022/10/15 05:34:08;;;;;;;36.50;30.90;;;12.70;99.90;;;;;;5014956;28;20203;-96
2022/10/15 05:36:37;;;;;;;37.63;30.27;;;12.60;99.90;;;;;;5014692;28;20205;-88
2022/10/15 05:39:09;;;;;;;33.65;30.38;;;12.60;99.90;;;;;;5013684;28;20199;-89
2022/10/15 05:41:37;;;;;;;37.97;29.17;;;12.60;99.90;;;;;;5013929;28;20221;-89
2022/10/15 05:44:06;;;;;;;34.40;30.95;;;12.60;99.90;;;;;;5013655;28;20210;-88
2022/10/15 05:46:34;;;;;;;36.10;31.33;;;12.60;99.90;;;;;;5013269;28;20218;-88
2022/10/15 05:49:02;;;;;;;33.95;30.25;;;12.60;99.90;;;;;;5013152;28;20237;-87
2022/10/15 05:51:31;;;;;;;34.53;31.17;;;12.70;99.90;;;;;;5013780;28;20203;-89
2022/10/15 05:54:00;;;;;;;35.50;32.00;;;12.70;99.90;;;;;;5013577;28;20199;-87
2022/10/15 05:56:29;;;;;;;46.38;32.45;;;12.70;99.90;;;;;;5013494;28;20214;-87
2022/10/15 05:58:58;;;;;;;33.42;30.02;;;12.70;99.90;;;;;;5012991;28;20223;-89
2022/10/15 06:01:26;;;;;;;34.67;30.98;;;12.70;99.90;;;;;;5013559;28;20211;-88
2022/10/15 06:03:54;;;;;;;34.25;30.73;;;12.70;99.90;;;;;;5013864;28;20207;-89
2022/10/15 06:06:25;;;;;;;34.65;30.90;;;12.70;99.90;;;;;;5013611;28;20210;-89
2022/10/15 06:08:53;;;;;;;33.58;30.15;;;12.70;99.90;;;;;;5013460;28;20227;-89
2022/10/15 06:11:23;;;;;;;33.58;30.30;;;12.70;99.90;;;;;;5013689;28;20218;-89
2022/10/15 06:13:52;;;;;;;43.10;34.08;;;12.70;99.90;;;;;;5013479;28;20207;-89
2022/10/15 06:16:20;;;;;;;35.83;32.08;;;12.70;99.90;;;;;;5013602;28;20215;-89
2022/10/15 06:18:52;;;;;;;39.00;31.55;;;12.80;99.90;;;;;;5012942;28;20233;-88
2022/10/15 06:21:20;;;;;;;36.55;32.47;;;12.80;99.90;;;;;;5013412;28;20273;-89
2022/10/15 06:23:49;;;;;;;36.45;31.90;;;12.80;99.90;;;;;;5012927;28;20203;-90
2022/10/15 06:26:17;;;;;;;39.10;31.88;;;12.80;99.90;;;;;;5013104;28;20199;-89
2022/10/15 06:28:47;;;;;;;35.40;31.98;;;12.80;99.90;;;;;;5012902;28;20227;-89
2022/10/15 06:31:15;;;;;;;34.33;31.00;;;12.80;99.90;;;;;;5013524;28;20206;-89
2022/10/15 06:33:43;;;;;;;36.20;32.38;;;12.80;99.90;;;;;;5013359;28;20217;-89
2022/10/15 06:36:13;;;;;;;37.72;30.70;;;12.80;99.90;;;;;;5012541;28;20207;-90
2022/10/15 06:38:43;;;;;;;34.97;31.48;;;12.80;99.90;;;;;;5012661;28;20222;-89
2022/10/15 06:41:11;;;;;;;42.10;34.13;;;12.80;99.90;;;;;;5012965;28;20222;-89
2022/10/15 06:43:39;;;;;;;34.28;30.30;;;12.90;99.90;;;;;;5013889;28;20218;-89
2022/10/15 06:46:10;;;;;;;37.30;33.38;;;12.90;99.90;;;;;;5013629;28;20203;-88
2022/10/15 06:48:38;;;;;;;36.28;32.28;;;12.90;99.90;;;;;;5012085;28;20223;-88
2022/10/15 06:51:06;;;;;;;35.03;31.40;;;13.00;99.90;;;;;;5013224;28;20196;-89
2022/10/15 06:53:34;;;;;;;37.65;33.58;;;12.90;99.90;;;;;;5013033;28;20199;-88
2022/10/15 06:56:04;;;;;;;37.17;33.17;;;12.90;99.90;;;;;;5013277;28;20211;-91
2022/10/15 06:58:32;;;;;;;34.55;31.13;;;12.90;99.90;;;;;;5014280;28;20223;-91
2022/10/15 07:01:01;;;;;;;36.55;32.80;;;12.90;99.90;;;;;;5016855;28;20214;-90
2022/10/15 07:03:31;;;;;;;36.40;31.00;;;12.90;99.90;;;;;;5016182;28;20227;-90
2022/10/15 07:06:03;;;;;;;37.38;33.35;;;12.90;99.90;;;;;;5016361;28;20209;-91
2022/10/15 07:08:32;;;;;;;35.45;31.73;;;12.90;99.90;;;;;;5015957;28;20258;-88
2022/10/15 07:11:01;;;;;;;37.10;33.35;;;13.00;99.90;;;;;;5016064;28;20203;-91
2022/10/15 07:13:30;;;;;;;40.65;33.42;;;13.00;99.90;;;;;;5016183;28;20208;-89
2022/10/15 07:15:58;;;;;;;35.08;31.30;;;13.00;99.90;;;;;;5019115;28;20202;-89
2022/10/15 07:18:27;;;;;;;34.83;31.02;;;13.00;99.90;;;;;;5019257;28;20230;-89
2022/10/15 07:20:58;;;;;;;37.65;33.63;;;13.00;99.90;;;;;;5016388;28;20208;-90
2022/10/15 07:23:27;;;;;;;33.10;29.90;;;13.10;99.90;;;;;;5016521;28;20203;-87
2022/10/15 07:25:57;;;;;;;37.85;31.30;;;13.10;99.90;;;;;;5015924;28;20207;-82
2022/10/15 07:28:25;;;;;;;37.75;33.75;;;13.10;99.90;;;;;;5015785;28;20233;-82
2022/10/15 07:30:53;;;;;;;35.72;32.05;;;13.10;99.90;;;;;;5015870;28;20226;-82
2022/10/15 07:33:22;;;;;;;37.47;33.63;;;13.10;99.90;;;;;;5015977;28;20207;-83
2022/10/15 07:35:50;;;;;;;35.30;31.92;;;13.20;99.90;;;;;;5016192;28;20208;-83
2022/10/15 07:38:19;;;;;;;38.05;34.03;;;13.20;99.90;;;;;;5016240;28;20230;-83
2022/10/15 07:40:48;;;;;;;37.30;33.55;;;13.20;99.90;;;;;;5016050;28;20218;-82
2022/10/15 07:43:16;;;;;;;36.97;32.78;;;13.20;99.90;;;;;;5016147;28;20233;-83
2022/10/15 07:45:48;;;;;;;45.17;34.92;;;13.30;99.90;;;;;;5015746;28;20214;-83
2022/10/15 07:48:16;;;;;;;36.53;32.67;;;13.30;99.90;;;;;;5015696;28;20238;-83
2022/10/15 07:50:45;;;;;;;36.67;32.80;;;13.40;99.90;;;;;;5015431;28;20215;-83
2022/10/15 07:53:13;;;;;;;39.03;31.83;;;13.40;99.90;;;;;;5015813;28;20218;-83
2022/10/15 07:55:49;;;;;;;35.45;31.90;;;13.40;99.90;;;;;;5015572;28;20238;-82
2022/10/15 07:58:18;;;;;;;37.40;33.63;;;13.50;99.90;;;;;;5015133;28;20223;-83
2022/10/15 08:00:46;;;;;;;33.85;30.52;;;13.50;99.90;;;;;;5015604;28;20211;-83
2022/10/15 08:03:14;;;;;;;42.55;34.53;;;13.50;99.90;;;;;;5015778;28;20207;-83
2022/10/15 08:05:42;;;;;;;36.03;32.03;;;13.50;99.90;;;;;;5015959;28;20203;-83
2022/10/15 08:08:10;;;;;;;34.67;31.13;;;13.60;99.90;;;;;;5012348;28;20370;-83
2022/10/15 08:10:38;;;;;;;38.08;33.38;;;13.60;99.90;;;;;;4995642;28;20286;-83
2022/10/15 08:13:08;;;;;;;37.97;34.08;;;13.60;99.90;;;;;;4995505;28;20215;-83
2022/10/15 08:15:39;;;;;;;38.10;33.50;;;13.60;99.90;;;;;;4995645;28;20227;-83
2022/10/15 08:18:08;;;;;;;41.20;30.10;;;13.60;99.90;;;;;;5013155;28;20226;-83
2022/10/15 08:20:37;;;;;;;35.67;32.00;;;13.60;99.90;;;;;;5014833;28;20207;-83
2022/10/15 08:23:06;;;;;;;36.28;32.55;;;13.70;99.90;;;;;;5014804;28;20198;-83
2022/10/15 08:25:34;;;;;;;39.33;32.90;;;13.70;99.90;;;;;;5014661;28;20211;-82
2022/10/15 08:28:02;;;;;;;37.20;33.35;;;13.80;99.90;;;;;;5014559;28;20231;-83
2022/10/15 08:30:32;;;;;;;36.53;33.05;;;13.90;99.90;;;;;;5015712;28;20284;-82
2022/10/15 08:33:01;;;;;;;40.30;34.33;;;13.90;99.90;;;;;;5018488;28;20202;-83
2022/10/15 08:35:34;;;;;;;36.80;32.88;;;14.00;99.90;;;;;;5017352;28;20214;-83
2022/10/15 08:38:02;;;;;;;37.13;33.25;;;14.10;99.90;;;;;;5014991;28;20239;-83
2022/10/15 08:40:31;;;;;;;37.13;32.88;;;14.10;99.90;;;;;;5014571;28;20211;-83
2022/10/15 08:42:59;;;;;;;39.42;35.25;;;14.20;99.90;;;;;;5014684;28;20203;-83
2022/10/15 08:45:33;;;;;;;37.55;33.65;;;14.20;99.90;;;;;;5015391;28;20230;-83
2022/10/15 08:48:05;;;;;;;37.35;33.40;;;14.30;99.90;;;;;;5014747;28;20225;-83
2022/10/15 08:50:43;;;;;;;33.80;30.17;;;14.30;99.90;;;;;;5014608;28;20227;-83
2022/10/15 08:53:14;;;;;;;38.40;34.25;;;14.30;99.90;;;;;;5014455;28;20207;-83
2022/10/15 08:55:45;;;;;;;35.80;31.95;;;14.40;99.90;;;;;;5014620;28;20199;-83
2022/10/15 08:58:18;;;;;;;38.03;33.65;;;14.40;99.90;;;;;;5014637;28;20239;-83
2022/10/15 09:00:52;;;;;;;39.42;35.20;;;14.40;99.90;;;;;;5014252;28;20214;-83
2022/10/15 09:03:35;;;;;;;39.25;34.80;;;14.40;99.90;;;;;;5014457;28;20214;-83
2022/10/15 09:06:12;;;;;;;38.60;34.63;;;14.40;99.90;;;;;;5014356;28;20257;-82
2022/10/15 09:08:50;;;;;;;37.47;33.53;;;14.40;99.90;;;;;;5014490;28;20227;-83
2022/10/15 09:11:28;;;;;;;39.75;34.85;;;14.50;99.90;;;;;;5014045;28;20238;-82
2022/10/15 09:13:57;;;;;;;39.30;35.28;;;14.50;99.90;;;;;;5014172;28;20207;-82
2022/10/15 09:16:30;;;;;;;38.60;34.53;;;14.60;99.90;;;;;;5013975;28;20203;-82
2022/10/15 09:19:00;;;;;;;42.85;33.42;;;14.60;99.90;;;;;;5014095;28;20199;-83
2022/10/15 09:21:30;;;;;;;42.63;36.63;;;14.70;99.90;;;;;;5013247;28;20199;-83
2022/10/15 09:24:01;;;;;;;39.38;32.13;;;14.70;99.90;;;;;;5013917;28;20210;-82
2022/10/15 09:26:36;;;;;;;35.60;31.90;;;14.60;99.90;;;;;;5014134;28;20214;-83
2022/10/15 09:29:15;;;;;;;36.38;32.60;;;14.70;99.90;;;;;;5013996;28;20211;-82
2022/10/15 09:31:50;;;;;;;37.60;32.30;;;14.70;99.90;;;;;;5013520;28;20223;-83
2022/10/15 09:34:27;;;;;;;35.17;31.05;;;14.70;99.90;;;;;;5013568;28;20218;-82
2022/10/15 09:36:59;;;;;;;38.72;34.65;;;14.70;99.90;;;;;;5014056;28;20230;-82
2022/10/15 09:39:38;;;;;;;33.70;30.13;;;14.80;99.90;;;;;;5013968;28;20203;-82
2022/10/15 09:42:18;;;;;;;34.17;30.88;;;14.80;99.90;;;;;;5013183;28;20191;-82
2022/10/15 09:44:48;;;;;;;36.97;31.08;;;14.90;99.90;;;;;;5012733;28;20218;-82
2022/10/15 09:47:23;;;;;;;36.58;32.72;;;14.90;99.90;;;;;;5012423;28;20249;-83
2022/10/15 09:49:52;;;;;;;36.28;32.67;;;14.90;99.90;;;;;;5012631;28;20211;-83
2022/10/15 09:52:29;;;;;;;39.20;32.03;;;14.90;99.90;;;;;;5012944;28;20206;-83
2022/10/15 09:55:08;;;;;;;37.17;31.45;;;14.90;99.90;;;;;;5002384;28;20256;-83
2022/10/15 09:57:38;;;;;;;30.70;27.55;;;14.90;99.90;;;;;;5013228;28;20230;-82
2022/10/15 10:00:09;;;;;;;30.52;27.70;;;14.90;99.90;;;;;;5018570;28;20202;-83
2022/10/15 10:02:39;;;;;;;35.13;31.17;;;14.80;99.90;;;;;;5030927;28;20221;-82
2022/10/15 10:05:28;;;;;;;29.20;26.50;;;14.80;99.90;;;;;;5018235;28;20202;-81
2022/10/15 10:08:09;;;;;;;29.92;26.40;;;14.70;99.90;;;;;;5012806;28;20229;-82
2022/10/15 10:10:38;;;;;;;31.67;28.45;;;14.80;99.90;;;;;;4992468;28;20230;-82
2022/10/15 10:13:24;;;;;;;30.25;27.15;;;14.70;99.90;;;;;;5011893;28;20215;-82
2022/10/15 10:15:54;;;;;;;30.85;27.65;;;14.70;99.90;;;;;;5012155;28;20199;-82
2022/10/15 10:18:30;;;;;;;29.80;26.95;;;14.70;99.90;;;;;;5012118;28;20294;-82
2022/10/15 10:21:01;;;;;;;30.58;27.38;;;14.70;99.90;;;;;;5012572;28;20263;-83
2022/10/15 10:23:33;;;;;;;29.50;25.67;;;14.80;99.90;;;;;;5012165;28;20202;-84
2022/10/15 10:26:03;;;;;;;29.83;26.60;;;14.80;99.90;;;;;;5012796;28;20213;-83
2022/10/15 10:28:34;;;;;;;28.88;25.85;;;14.90;99.90;;;;;;5012297;28;20242;-83
2022/10/15 10:31:11;;;;;;;30.13;26.67;;;14.90;99.90;;;;;;5012773;28;20306;-83
2022/10/15 10:33:46;;;;;;;29.30;26.58;;;14.90;99.90;;;;;;5014428;28;20205;-83
2022/10/15 10:36:25;;;;;;;29.02;26.15;;;14.90;99.90;;;;;;5015924;28;20206;-82
2022/10/15 10:39:01;;;;;;;28.55;25.67;;;15.00;99.90;;;;;;5015737;28;20230;-83
2022/10/15 10:41:48;;;;;;;26.95;24.10;;;15.00;99.90;;;;;;4988881;28;318915;-82
2022/10/15 10:44:22;;;;;;;26.30;23.73;;;15.00;99.90;;;;;;5016634;28;20203;-82
2022/10/15 10:47:04;;;;;;;28.90;25.85;;;15.10;99.90;;;;;;5017411;28;20226;-83
2022/10/15 10:49:36;;;;;;;28.10;25.15;;;15.20;99.90;;;;;;5016673;28;20196;-82
2022/10/15 10:52:05;;;;;;;27.70;24.98;;;15.20;99.90;;;;;;5016371;28;20233;-82
2022/10/15 10:54:34;;;;;;;26.27;23.77;;;15.30;99.90;;;;;;5016702;28;20203;-83
2022/10/15 10:57:03;;;;;;;28.20;25.30;;;15.30;99.90;;;;;;5017249;28;20267;-82
2022/10/15 10:59:35;;;;;;;27.30;24.40;;;15.40;99.90;;;;;;5016724;28;20206;-82
2022/10/15 11:02:09;;;;;;;28.25;24.90;;;15.40;99.90;;;;;;5017159;28;20210;-83
2022/10/15 11:04:40;;;;;;;26.40;23.83;;;15.40;99.90;;;;;;5016514;28;20212;-83
2022/10/15 11:07:16;;;;;;;26.38;23.88;;;15.50;99.90;;;;;;5016670;28;20230;-82
2022/10/15 11:09:51;;;;;;;26.13;23.60;;;15.50;99.90;;;;;;5016419;28;20249;-82
2022/10/15 11:12:56;;;;;;;23.50;21.10;;;15.50;99.90;;;;;;5016415;28;20218;-82
2022/10/15 11:15:33;;;;;;;22.92;20.55;;;15.40;99.90;;;;;;5012586;28;20215;-83
2022/10/15 11:18:16;;;;;;;22.25;20.02;;;15.30;99.90;;;;;;4996985;28;20231;-83
2022/10/15 11:20:55;;;;;;;22.00;19.73;;;15.10;99.90;;;;;;4999000;28;20216;-82
2022/10/15 11:23:45;;;;;;;22.63;20.45;;;14.90;99.90;;;;;;5016093;28;20227;-84
2022/10/15 11:26:29;;;;;;;29.83;21.77;;;14.60;99.90;;;;;;5016547;28;20203;-84
2022/10/15 11:29:12;;;;;;;24.00;21.80;;;14.50;99.90;;;;;;5015880;28;20199;-83
2022/10/15 11:31:47;;;;;;;24.50;22.15;;;14.30;99.90;;;;;;5016310;28;20227;-83
2022/10/15 11:34:41;;;;;;;30.42;24.80;;;14.30;99.90;;;;;;5016119;28;20192;-84
2022/10/15 11:37:23;;;;;;;29.35;26.38;;;14.20;99.90;;;;;;5016074;28;20231;-83
2022/10/15 11:40:06;;;;;;;28.58;25.95;;;14.10;99.90;;;;;;5015890;28;20214;-83
2022/10/15 11:42:38;;;;;;;27.55;24.58;;;14.20;99.90;;;;;;5016214;28;20195;-84
2022/10/15 11:45:27;;;;;;;30.40;27.35;;;14.20;99.90;;;;;;5015921;28;20207;-84
2022/10/15 11:48:02;;;;;;;28.92;26.23;;;14.10;99.90;;;;;;5015789;28;20230;-84
2022/10/15 11:50:34;;;;;;;31.95;28.45;;;14.20;99.90;;;;;;4996425;28;20203;-84
2022/10/15 11:53:29;;;;;;;33.55;30.35;;;14.20;99.90;;;;;;5015308;28;20242;-84
2022/10/15 11:56:03;;;;;;;31.13;28.13;;;14.20;99.90;;;;;;5015636;28;20195;-84
2022/10/15 11:58:35;;;;;;;30.83;27.65;;;14.10;99.90;;;;;;5015652;28;20242;-87
2022/10/15 12:01:09;;;;;;;32.17;28.30;;;14.10;99.90;;;;;;5015640;28;20203;-85
2022/10/15 12:03:43;;;;;;;31.67;28.52;;;14.00;99.90;;;;;;5015555;28;20195;-84
2022/10/15 12:06:18;;;;;;;35.80;29.60;;;14.00;99.90;;;;;;5015556;28;20226;-85
2022/10/15 12:08:50;;;;;;;32.33;29.02;;;14.10;99.90;;;;;;5015239;28;20248;-86
2022/10/15 12:11:28;;;;;;;31.83;28.70;;;14.10;99.90;;;;;;5015384;28;20214;-86
2022/10/15 12:14:05;;;;;;;33.00;29.58;;;14.10;99.90;;;;;;5015616;28;20218;-89
2022/10/15 12:16:39;;;;;;;36.22;28.42;;;14.00;99.90;;;;;;5014659;28;20211;-86
2022/10/15 12:19:15;;;;;;;31.40;28.13;;;14.00;99.90;;;;;;5015703;28;20213;-86
2022/10/15 12:22:05;;;;;;;33.35;29.73;;;14.00;99.90;;;;;;5015295;28;20214;-86
2022/10/15 12:24:53;;;;;;;34.60;30.20;;;13.90;99.90;;;;;;5015536;28;20203;-86
2022/10/15 12:27:36;;;;;;;33.28;29.92;;;13.90;99.90;;;;;;5015086;28;20227;-88
2022/10/15 12:30:33;;;;;;;33.88;30.45;;;13.90;99.90;;;;;;5015285;28;20222;-86
2022/10/15 12:33:02;;;;;;;33.47;29.92;;;13.90;99.90;;;;;;5002249;28;20302;-86
2022/10/15 12:35:35;;;;;;;35.00;31.52;;;13.90;99.90;;;;;;5015307;28;20219;-86
2022/10/15 12:38:21;;;;;;;36.00;32.45;;;13.90;99.90;;;;;;5014848;28;20234;-86
2022/10/15 12:40:59;;;;;;;40.20;34.78;;;13.90;99.90;;;;;;5014562;28;20219;-85
2022/10/15 12:43:28;;;;;;;36.33;32.63;;;13.90;99.90;;;;;;5014851;28;20213;-86
2022/10/15 12:45:59;;;;;;;41.08;36.75;;;13.90;99.90;;;;;;5014844;28;20207;-86
2022/10/15 12:48:39;;;;;;;40.60;36.55;;;13.90;99.90;;;;;;5014864;28;20227;-86
2022/10/15 12:51:29;;;;;;;46.53;36.92;;;13.90;99.90;;;;;;5014671;28;20199;-85
2022/10/15 12:53:59;;;;;;;42.35;37.85;;;14.00;99.90;;;;;;5014721;28;20195;-85
2022/10/15 12:56:39;;;;;;;43.80;38.85;;;14.00;99.90;;;;;;5013664;28;20205;-85
2022/10/15 12:59:29;;;;;;;43.33;38.60;;;14.00;99.90;;;;;;5014697;28;20203;-84